sensor_id;sensor_type;location;lat;lon;timestamp;P1;durP1;ratioP1;P2;durP2;ratioP2
17141;SDS011;32805;53.556;9.944;2023-04-03T00:00:02;3.15;;;1.52;;
17141;SDS011;32805;53.556;9.944;2023-04-03T00:02:32;3.40;;;1.65;;
17141;SDS011;32805;53.556;9.944;2023-04-03T00:05:00;5.30;;;1.80;;
17141;SDS011;32805;53.556;9.944;2023-04-03T00:07:28;4.03;;;1.85;;
17141;SDS011;32805;53.556;9.944;2023-04-03T00:09:55;4.38;;;1.55;;
17141;SDS011;32805;53.556;9.944;2023-04-03T00:12:23;3.60;;;2.10;;
17141;SDS011;32805;53.556;9.944;2023-04-03T00:14:51;3.88;;;1.85;;
17141;SDS011;32805;53.556;9.944;2023-04-03T00:17:20;2.75;;;1.58;;
17141;SDS011;32805;53.556;9.944;2023-04-03T00:19:47;4.15;;;2.00;;
17141;SDS011;32805;53.556;9.944;2023-04-03T00:22:15;4.07;;;2.00;;
17141;SDS011;32805;53.556;9.944;2023-04-03T00:24:42;4.55;;;1.92;;
17141;SDS011;32805;53.556;9.944;2023-04-03T00:27:10;4.72;;;1.65;;
17141;SDS011;32805;53.556;9.944;2023-04-03T00:29:38;3.33;;;1.55;;
17141;SDS011;32805;53.556;9.944;2023-04-03T00:32:06;3.75;;;2.03;;
17141;SDS011;32805;53.556;9.944;2023-04-03T00:34:35;3.97;;;1.90;;
17141;SDS011;32805;53.556;9.944;2023-04-03T00:37:02;2.05;;;1.27;;
17141;SDS011;32805;53.556;9.944;2023-04-03T00:39:31;4.05;;;1.83;;
17141;SDS011;32805;53.556;9.944;2023-04-03T00:41:58;3.75;;;1.67;;
17141;SDS011;32805;53.556;9.944;2023-04-03T00:47:28;3.75;;;1.75;;
17141;SDS011;32805;53.556;9.944;2023-04-03T00:49:58;2.75;;;1.80;;
17141;SDS011;32805;53.556;9.944;2023-04-03T00:52:27;3.08;;;1.83;;
17141;SDS011;32805;53.556;9.944;2023-04-03T00:54:57;3.90;;;1.90;;
17141;SDS011;32805;53.556;9.944;2023-04-03T00:57:29;4.07;;;1.90;;
17141;SDS011;32805;53.556;9.944;2023-04-03T00:59:59;3.60;;;1.70;;
17141;SDS011;32805;53.556;9.944;2023-04-03T01:02:30;5.53;;;1.67;;
17141;SDS011;32805;53.556;9.944;2023-04-03T01:04:59;3.88;;;1.90;;
17141;SDS011;32805;53.556;9.944;2023-04-03T01:07:27;5.10;;;1.75;;
17141;SDS011;32805;53.556;9.944;2023-04-03T01:09:58;5.85;;;2.10;;
17141;SDS011;32805;53.556;9.944;2023-04-03T01:12:29;4.80;;;2.03;;
17141;SDS011;32805;53.556;9.944;2023-04-03T01:14:59;4.28;;;2.00;;
17141;SDS011;32805;53.556;9.944;2023-04-03T01:17:28;6.47;;;2.40;;
17141;SDS011;32805;53.556;9.944;2023-04-03T01:20:08;4.93;;;1.70;;
17141;SDS011;32805;53.556;9.944;2023-04-03T01:23:05;4.28;;;2.00;;
17141;SDS011;32805;53.556;9.944;2023-04-03T01:25:40;4.07;;;1.50;;
17141;SDS011;32805;53.556;9.944;2023-04-03T01:28:11;4.18;;;1.85;;
17141;SDS011;32805;53.556;9.944;2023-04-03T01:30:42;2.72;;;1.70;;
17141;SDS011;32805;53.556;9.944;2023-04-03T01:33:16;5.20;;;1.88;;
17141;SDS011;32805;53.556;9.944;2023-04-03T01:35:46;7.35;;;2.30;;
17141;SDS011;32805;53.556;9.944;2023-04-03T01:38:14;5.88;;;1.98;;
17141;SDS011;32805;53.556;9.944;2023-04-03T01:40:42;6.00;;;2.28;;
17141;SDS011;32805;53.556;9.944;2023-04-03T01:43:10;5.88;;;2.03;;
17141;SDS011;32805;53.556;9.944;2023-04-03T01:45:38;3.78;;;2.00;;
17141;SDS011;32805;53.556;9.944;2023-04-03T01:48:05;3.28;;;1.80;;
17141;SDS011;32805;53.556;9.944;2023-04-03T01:50:35;5.32;;;2.22;;
17141;SDS011;32805;53.556;9.944;2023-04-03T01:53:04;4.65;;;1.90;;
17141;SDS011;32805;53.556;9.944;2023-04-03T01:55:32;6.43;;;2.10;;
17141;SDS011;32805;53.556;9.944;2023-04-03T01:57:59;6.78;;;2.22;;
17141;SDS011;32805;53.556;9.944;2023-04-03T02:00:27;5.05;;;1.98;;
17141;SDS011;32805;53.556;9.944;2023-04-03T02:02:55;5.70;;;2.10;;
17141;SDS011;32805;53.556;9.944;2023-04-03T02:05:24;3.75;;;1.90;;
17141;SDS011;32805;53.556;9.944;2023-04-03T02:07:53;5.20;;;1.92;;
17141;SDS011;32805;53.556;9.944;2023-04-03T02:10:21;4.25;;;1.75;;
17141;SDS011;32805;53.556;9.944;2023-04-03T02:12:49;6.97;;;2.10;;
17141;SDS011;32805;53.556;9.944;2023-04-03T02:15:17;6.22;;;2.50;;
17141;SDS011;32805;53.556;9.944;2023-04-03T02:17:45;3.55;;;2.45;;
17141;SDS011;32805;53.556;9.944;2023-04-03T02:20:13;5.55;;;2.38;;
17141;SDS011;32805;53.556;9.944;2023-04-03T02:22:41;4.53;;;1.95;;
17141;SDS011;32805;53.556;9.944;2023-04-03T02:25:10;7.13;;;2.25;;
17141;SDS011;32805;53.556;9.944;2023-04-03T02:27:40;4.07;;;1.95;;
17141;SDS011;32805;53.556;9.944;2023-04-03T02:30:08;7.00;;;2.17;;
17141;SDS011;32805;53.556;9.944;2023-04-03T02:32:36;3.60;;;2.17;;
17141;SDS011;32805;53.556;9.944;2023-04-03T02:35:04;3.83;;;1.60;;
17141;SDS011;32805;53.556;9.944;2023-04-03T02:37:33;4.28;;;2.35;;
17141;SDS011;32805;53.556;9.944;2023-04-03T02:40:01;4.57;;;2.20;;
17141;SDS011;32805;53.556;9.944;2023-04-03T02:42:30;5.22;;;1.55;;
17141;SDS011;32805;53.556;9.944;2023-04-03T02:44:58;6.95;;;2.25;;
17141;SDS011;32805;53.556;9.944;2023-04-03T02:47:26;3.25;;;1.77;;
17141;SDS011;32805;53.556;9.944;2023-04-03T02:49:55;4.28;;;2.10;;
17141;SDS011;32805;53.556;9.944;2023-04-03T02:52:22;5.10;;;1.80;;
17141;SDS011;32805;53.556;9.944;2023-04-03T02:54:53;7.22;;;2.53;;
17141;SDS011;32805;53.556;9.944;2023-04-03T02:57:20;4.85;;;2.20;;
17141;SDS011;32805;53.556;9.944;2023-04-03T02:59:50;4.32;;;2.45;;
17141;SDS011;32805;53.556;9.944;2023-04-03T03:02:17;5.75;;;2.53;;
17141;SDS011;32805;53.556;9.944;2023-04-03T03:04:45;4.90;;;2.30;;
17141;SDS011;32805;53.556;9.944;2023-04-03T03:07:13;5.28;;;2.35;;
17141;SDS011;32805;53.556;9.944;2023-04-03T03:09:41;4.78;;;1.98;;
17141;SDS011;32805;53.556;9.944;2023-04-03T03:12:09;4.75;;;2.40;;
17141;SDS011;32805;53.556;9.944;2023-04-03T03:14:36;4.13;;;2.38;;
17141;SDS011;32805;53.556;9.944;2023-04-03T03:17:05;8.25;;;2.83;;
17141;SDS011;32805;53.556;9.944;2023-04-03T03:19:33;5.88;;;2.00;;
17141;SDS011;32805;53.556;9.944;2023-04-03T03:22:00;7.70;;;3.38;;
17141;SDS011;32805;53.556;9.944;2023-04-03T03:24:28;9.30;;;3.80;;
17141;SDS011;32805;53.556;9.944;2023-04-03T03:26:56;7.18;;;3.72;;
17141;SDS011;32805;53.556;9.944;2023-04-03T03:29:24;8.52;;;4.13;;
17141;SDS011;32805;53.556;9.944;2023-04-03T03:31:52;6.53;;;3.50;;
17141;SDS011;32805;53.556;9.944;2023-04-03T03:34:21;8.32;;;3.00;;
17141;SDS011;32805;53.556;9.944;2023-04-03T03:36:49;5.35;;;3.00;;
17141;SDS011;32805;53.556;9.944;2023-04-03T03:39:17;6.32;;;2.88;;
17141;SDS011;32805;53.556;9.944;2023-04-03T03:41:44;4.35;;;2.40;;
17141;SDS011;32805;53.556;9.944;2023-04-03T03:44:12;8.10;;;3.17;;
17141;SDS011;32805;53.556;9.944;2023-04-03T03:46:41;27.45;;;10.15;;
17141;SDS011;32805;53.556;9.944;2023-04-03T03:49:09;23.23;;;9.60;;
17141;SDS011;32805;53.556;9.944;2023-04-03T03:51:39;19.52;;;7.13;;
17141;SDS011;32805;53.556;9.944;2023-04-03T03:54:07;12.35;;;3.83;;
17141;SDS011;32805;53.556;9.944;2023-04-03T03:56:35;20.25;;;6.85;;
17141;SDS011;32805;53.556;9.944;2023-04-03T03:59:03;11.65;;;3.17;;
17141;SDS011;32805;53.556;9.944;2023-04-03T04:01:31;25.63;;;10.68;;
17141;SDS011;32805;53.556;9.944;2023-04-03T04:04:00;41.90;;;14.85;;
17141;SDS011;32805;53.556;9.944;2023-04-03T04:06:30;23.13;;;8.77;;
17141;SDS011;32805;53.556;9.944;2023-04-03T04:09:03;6.55;;;3.25;;
17141;SDS011;32805;53.556;9.944;2023-04-03T04:11:31;12.13;;;5.10;;
17141;SDS011;32805;53.556;9.944;2023-04-03T04:13:59;22.65;;;7.38;;
17141;SDS011;32805;53.556;9.944;2023-04-03T04:16:28;16.10;;;7.30;;
17141;SDS011;32805;53.556;9.944;2023-04-03T04:19:01;18.02;;;6.90;;
17141;SDS011;32805;53.556;9.944;2023-04-03T04:21:32;9.27;;;3.33;;
17141;SDS011;32805;53.556;9.944;2023-04-03T04:24:00;13.70;;;4.90;;
17141;SDS011;32805;53.556;9.944;2023-04-03T04:26:29;8.30;;;3.28;;
17141;SDS011;32805;53.556;9.944;2023-04-03T04:28:57;5.22;;;2.33;;
17141;SDS011;32805;53.556;9.944;2023-04-03T04:31:25;6.35;;;2.40;;
17141;SDS011;32805;53.556;9.944;2023-04-03T04:33:53;4.68;;;2.60;;
17141;SDS011;32805;53.556;9.944;2023-04-03T04:36:20;3.38;;;2.78;;
17141;SDS011;32805;53.556;9.944;2023-04-03T04:38:48;14.85;;;4.38;;
17141;SDS011;32805;53.556;9.944;2023-04-03T04:41:20;10.25;;;3.15;;
17141;SDS011;32805;53.556;9.944;2023-04-03T04:43:51;6.22;;;3.03;;
17141;SDS011;32805;53.556;9.944;2023-04-03T04:46:20;5.53;;;2.90;;
17141;SDS011;32805;53.556;9.944;2023-04-03T04:48:52;7.65;;;2.55;;
17141;SDS011;32805;53.556;9.944;2023-04-03T04:51:21;11.02;;;3.75;;
17141;SDS011;32805;53.556;9.944;2023-04-03T04:53:48;6.68;;;3.33;;
17141;SDS011;32805;53.556;9.944;2023-04-03T04:56:18;6.15;;;2.70;;
17141;SDS011;32805;53.556;9.944;2023-04-03T04:58:46;5.45;;;2.63;;
17141;SDS011;32805;53.556;9.944;2023-04-03T05:01:18;5.28;;;2.67;;
17141;SDS011;32805;53.556;9.944;2023-04-03T05:03:53;3.47;;;2.33;;
17141;SDS011;32805;53.556;9.944;2023-04-03T05:06:23;6.63;;;2.42;;
17141;SDS011;32805;53.556;9.944;2023-04-03T05:08:52;3.92;;;2.13;;
17141;SDS011;32805;53.556;9.944;2023-04-03T05:11:20;7.30;;;2.00;;
17141;SDS011;32805;53.556;9.944;2023-04-03T05:13:51;4.88;;;2.78;;
17141;SDS011;32805;53.556;9.944;2023-04-03T05:16:21;4.60;;;2.47;;
17141;SDS011;32805;53.556;9.944;2023-04-03T05:18:49;4.35;;;2.75;;
17141;SDS011;32805;53.556;9.944;2023-04-03T05:21:20;5.35;;;2.47;;
17141;SDS011;32805;53.556;9.944;2023-04-03T05:23:50;3.60;;;2.38;;
17141;SDS011;32805;53.556;9.944;2023-04-03T05:26:18;5.82;;;2.65;;
17141;SDS011;32805;53.556;9.944;2023-04-03T05:28:48;4.13;;;2.67;;
17141;SDS011;32805;53.556;9.944;2023-04-03T05:31:17;6.80;;;2.90;;
17141;SDS011;32805;53.556;9.944;2023-04-03T05:33:48;4.35;;;2.40;;
17141;SDS011;32805;53.556;9.944;2023-04-03T05:36:17;2.85;;;2.35;;
17141;SDS011;32805;53.556;9.944;2023-04-03T05:38:49;4.95;;;3.00;;
17141;SDS011;32805;53.556;9.944;2023-04-03T05:41:18;4.18;;;2.67;;
17141;SDS011;32805;53.556;9.944;2023-04-03T05:43:47;5.10;;;2.38;;
17141;SDS011;32805;53.556;9.944;2023-04-03T05:46:16;4.18;;;2.47;;
17141;SDS011;32805;53.556;9.944;2023-04-03T05:48:51;6.03;;;2.58;;
17141;SDS011;32805;53.556;9.944;2023-04-03T05:51:22;3.72;;;2.50;;
17141;SDS011;32805;53.556;9.944;2023-04-03T05:54:09;3.85;;;2.47;;
17141;SDS011;32805;53.556;9.944;2023-04-03T05:56:41;4.53;;;2.40;;
17141;SDS011;32805;53.556;9.944;2023-04-03T05:59:09;7.20;;;2.88;;
17141;SDS011;32805;53.556;9.944;2023-04-03T06:01:37;5.20;;;2.90;;
17141;SDS011;32805;53.556;9.944;2023-04-03T06:04:06;5.15;;;2.78;;
17141;SDS011;32805;53.556;9.944;2023-04-03T06:06:43;5.22;;;2.95;;
17141;SDS011;32805;53.556;9.944;2023-04-03T06:09:11;5.45;;;2.88;;
17141;SDS011;32805;53.556;9.944;2023-04-03T06:11:39;4.70;;;2.60;;
17141;SDS011;32805;53.556;9.944;2023-04-03T06:14:08;4.72;;;2.72;;
17141;SDS011;32805;53.556;9.944;2023-04-03T06:16:36;3.53;;;2.60;;
17141;SDS011;32805;53.556;9.944;2023-04-03T06:19:08;5.45;;;2.50;;
17141;SDS011;32805;53.556;9.944;2023-04-03T06:21:40;6.65;;;2.67;;
17141;SDS011;32805;53.556;9.944;2023-04-03T06:24:08;4.32;;;2.33;;
17141;SDS011;32805;53.556;9.944;2023-04-03T06:26:37;5.80;;;2.30;;
17141;SDS011;32805;53.556;9.944;2023-04-03T06:29:05;4.72;;;2.10;;
17141;SDS011;32805;53.556;9.944;2023-04-03T06:31:33;6.03;;;2.55;;
17141;SDS011;32805;53.556;9.944;2023-04-03T06:34:02;3.80;;;2.00;;
17141;SDS011;32805;53.556;9.944;2023-04-03T06:36:35;4.00;;;2.10;;
17141;SDS011;32805;53.556;9.944;2023-04-03T06:39:03;4.47;;;1.90;;
17141;SDS011;32805;53.556;9.944;2023-04-03T06:41:30;4.03;;;1.92;;
17141;SDS011;32805;53.556;9.944;2023-04-03T06:44:00;2.53;;;1.75;;
17141;SDS011;32805;53.556;9.944;2023-04-03T06:46:29;3.90;;;2.03;;
17141;SDS011;32805;53.556;9.944;2023-04-03T06:48:57;4.00;;;2.15;;
17141;SDS011;32805;53.556;9.944;2023-04-03T06:51:25;4.30;;;1.95;;
17141;SDS011;32805;53.556;9.944;2023-04-03T06:53:57;3.63;;;1.83;;
17141;SDS011;32805;53.556;9.944;2023-04-03T06:56:26;6.07;;;1.75;;
17141;SDS011;32805;53.556;9.944;2023-04-03T06:58:56;5.47;;;2.25;;
17141;SDS011;32805;53.556;9.944;2023-04-03T07:01:25;3.55;;;1.75;;
17141;SDS011;32805;53.556;9.944;2023-04-03T07:03:57;2.33;;;1.75;;
17141;SDS011;32805;53.556;9.944;2023-04-03T07:06:25;4.70;;;2.08;;
17141;SDS011;32805;53.556;9.944;2023-04-03T07:08:54;3.25;;;1.85;;
17141;SDS011;32805;53.556;9.944;2023-04-03T07:11:23;2.67;;;1.80;;
17141;SDS011;32805;53.556;9.944;2023-04-03T07:13:52;2.20;;;1.60;;
17141;SDS011;32805;53.556;9.944;2023-04-03T07:16:20;6.32;;;1.98;;
17141;SDS011;32805;53.556;9.944;2023-04-03T07:18:48;3.00;;;1.60;;
17141;SDS011;32805;53.556;9.944;2023-04-03T07:21:15;4.78;;;1.38;;
17141;SDS011;32805;53.556;9.944;2023-04-03T07:23:43;5.55;;;1.58;;
17141;SDS011;32805;53.556;9.944;2023-04-03T07:26:11;4.55;;;1.40;;
17141;SDS011;32805;53.556;9.944;2023-04-03T07:28:40;3.50;;;1.33;;
17141;SDS011;32805;53.556;9.944;2023-04-03T07:31:10;2.70;;;1.17;;
17141;SDS011;32805;53.556;9.944;2023-04-03T07:33:40;3.15;;;1.23;;
17141;SDS011;32805;53.556;9.944;2023-04-03T07:36:09;5.07;;;1.52;;
17141;SDS011;32805;53.556;9.944;2023-04-03T07:38:37;2.38;;;1.10;;
17141;SDS011;32805;53.556;9.944;2023-04-03T07:41:05;14.32;;;2.45;;
17141;SDS011;32805;53.556;9.944;2023-04-03T07:43:33;2.35;;;0.85;;
17141;SDS011;32805;53.556;9.944;2023-04-03T07:46:04;4.88;;;1.40;;
17141;SDS011;32805;53.556;9.944;2023-04-03T07:48:32;3.03;;;1.13;;
17141;SDS011;32805;53.556;9.944;2023-04-03T07:51:01;3.58;;;1.50;;
17141;SDS011;32805;53.556;9.944;2023-04-03T07:53:30;4.00;;;1.10;;
17141;SDS011;32805;53.556;9.944;2023-04-03T07:55:58;3.42;;;1.08;;
17141;SDS011;32805;53.556;9.944;2023-04-03T07:58:26;2.22;;;1.00;;
17141;SDS011;32805;53.556;9.944;2023-04-03T08:00:54;4.72;;;1.15;;
17141;SDS011;32805;53.556;9.944;2023-04-03T08:03:23;1.77;;;1.10;;
17141;SDS011;32805;53.556;9.944;2023-04-03T08:05:51;2.75;;;1.50;;
17141;SDS011;32805;53.556;9.944;2023-04-03T08:08:20;4.20;;;1.70;;
17141;SDS011;32805;53.556;9.944;2023-04-03T08:10:49;3.45;;;1.20;;
17141;SDS011;32805;53.556;9.944;2023-04-03T08:13:18;3.38;;;1.38;;
17141;SDS011;32805;53.556;9.944;2023-04-03T08:15:47;3.97;;;1.20;;
17141;SDS011;32805;53.556;9.944;2023-04-03T08:18:15;2.35;;;1.20;;
17141;SDS011;32805;53.556;9.944;2023-04-03T08:20:44;2.95;;;1.13;;
17141;SDS011;32805;53.556;9.944;2023-04-03T08:23:12;2.65;;;0.88;;
17141;SDS011;32805;53.556;9.944;2023-04-03T08:25:44;2.97;;;1.40;;
17141;SDS011;32805;53.556;9.944;2023-04-03T08:28:12;2.97;;;1.15;;
17141;SDS011;32805;53.556;9.944;2023-04-03T08:30:40;2.03;;;1.27;;
17141;SDS011;32805;53.556;9.944;2023-04-03T08:33:09;2.38;;;0.80;;
17141;SDS011;32805;53.556;9.944;2023-04-03T08:35:40;3.35;;;1.50;;
17141;SDS011;32805;53.556;9.944;2023-04-03T08:38:10;4.03;;;1.38;;
17141;SDS011;32805;53.556;9.944;2023-04-03T08:40:38;0.93;;;0.82;;
17141;SDS011;32805;53.556;9.944;2023-04-03T08:43:19;2.83;;;1.17;;
17141;SDS011;32805;53.556;9.944;2023-04-03T08:45:58;3.58;;;2.00;;
17141;SDS011;32805;53.556;9.944;2023-04-03T08:48:31;1.15;;;0.98;;
17141;SDS011;32805;53.556;9.944;2023-04-03T08:51:03;4.00;;;1.05;;
17141;SDS011;32805;53.556;9.944;2023-04-03T08:53:40;4.50;;;1.17;;
17141;SDS011;32805;53.556;9.944;2023-04-03T08:56:11;3.05;;;1.33;;
17141;SDS011;32805;53.556;9.944;2023-04-03T08:58:41;7.47;;;2.20;;
17141;SDS011;32805;53.556;9.944;2023-04-03T09:01:17;3.47;;;1.60;;
17141;SDS011;32805;53.556;9.944;2023-04-03T09:03:47;1.58;;;1.02;;
17141;SDS011;32805;53.556;9.944;2023-04-03T09:06:16;2.80;;;1.00;;
17141;SDS011;32805;53.556;9.944;2023-04-03T09:08:49;1.70;;;1.00;;
17141;SDS011;32805;53.556;9.944;2023-04-03T09:11:36;1.77;;;1.00;;
17141;SDS011;32805;53.556;9.944;2023-04-03T09:14:15;2.08;;;0.82;;
17141;SDS011;32805;53.556;9.944;2023-04-03T09:16:52;2.90;;;0.85;;
17141;SDS011;32805;53.556;9.944;2023-04-03T09:19:26;2.70;;;1.20;;
17141;SDS011;32805;53.556;9.944;2023-04-03T09:22:09;1.60;;;0.90;;
17141;SDS011;32805;53.556;9.944;2023-04-03T09:24:44;4.80;;;1.30;;
17141;SDS011;32805;53.556;9.944;2023-04-03T09:27:13;2.28;;;0.90;;
17141;SDS011;32805;53.556;9.944;2023-04-03T09:29:42;4.03;;;1.20;;
17141;SDS011;32805;53.556;9.944;2023-04-03T09:32:18;1.73;;;1.02;;
17141;SDS011;32805;53.556;9.944;2023-04-03T09:34:49;4.93;;;1.00;;
17141;SDS011;32805;53.556;9.944;2023-04-03T09:37:33;2.45;;;1.00;;
17141;SDS011;32805;53.556;9.944;2023-04-03T09:40:28;1.23;;;0.85;;
17141;SDS011;32805;53.556;9.944;2023-04-03T09:43:02;2.80;;;1.35;;
17141;SDS011;32805;53.556;9.944;2023-04-03T09:45:48;2.90;;;1.00;;
17141;SDS011;32805;53.556;9.944;2023-04-03T09:48:18;3.47;;;1.30;;
17141;SDS011;32805;53.556;9.944;2023-04-03T09:50:58;2.20;;;0.90;;
17141;SDS011;32805;53.556;9.944;2023-04-03T09:53:29;2.45;;;1.10;;
17141;SDS011;32805;53.556;9.944;2023-04-03T09:56:05;2.08;;;1.02;;
17141;SDS011;32805;53.556;9.944;2023-04-03T09:58:48;3.38;;;0.90;;
17141;SDS011;32805;53.556;9.944;2023-04-03T10:01:20;4.05;;;1.05;;
17141;SDS011;32805;53.556;9.944;2023-04-03T10:04:03;2.38;;;1.05;;
17141;SDS011;32805;53.556;9.944;2023-04-03T10:06:37;2.15;;;0.95;;
17141;SDS011;32805;53.556;9.944;2023-04-03T10:09:17;4.40;;;1.08;;
17141;SDS011;32805;53.556;9.944;2023-04-03T10:11:58;3.28;;;0.90;;
17141;SDS011;32805;53.556;9.944;2023-04-03T10:14:31;2.42;;;1.00;;
17141;SDS011;32805;53.556;9.944;2023-04-03T10:17:02;2.22;;;0.80;;
17141;SDS011;32805;53.556;9.944;2023-04-03T10:19:39;2.53;;;0.80;;
17141;SDS011;32805;53.556;9.944;2023-04-03T10:22:13;3.40;;;1.25;;
17141;SDS011;32805;53.556;9.944;2023-04-03T10:24:50;1.83;;;0.80;;
17141;SDS011;32805;53.556;9.944;2023-04-03T10:27:25;1.35;;;0.70;;
17141;SDS011;32805;53.556;9.944;2023-04-03T10:30:02;3.17;;;0.80;;
17141;SDS011;32805;53.556;9.944;2023-04-03T10:32:42;2.70;;;0.93;;
17141;SDS011;32805;53.556;9.944;2023-04-03T10:35:20;1.75;;;0.63;;
17141;SDS011;32805;53.556;9.944;2023-04-03T10:38:02;2.70;;;1.00;;
17141;SDS011;32805;53.556;9.944;2023-04-03T10:40:36;2.20;;;0.88;;
17141;SDS011;32805;53.556;9.944;2023-04-03T10:43:16;1.63;;;0.80;;
17141;SDS011;32805;53.556;9.944;2023-04-03T10:45:57;2.70;;;0.88;;
17141;SDS011;32805;53.556;9.944;2023-04-03T10:48:32;1.60;;;0.90;;
17141;SDS011;32805;53.556;9.944;2023-04-03T10:51:11;1.98;;;0.85;;
17141;SDS011;32805;53.556;9.944;2023-04-03T10:53:50;1.52;;;0.88;;
17141;SDS011;32805;53.556;9.944;2023-04-03T10:56:26;1.83;;;0.80;;
17141;SDS011;32805;53.556;9.944;2023-04-03T10:59:08;1.50;;;0.60;;
17141;SDS011;32805;53.556;9.944;2023-04-03T11:01:44;1.05;;;0.70;;
17141;SDS011;32805;53.556;9.944;2023-04-03T11:04:15;2.85;;;0.93;;
17141;SDS011;32805;53.556;9.944;2023-04-03T11:06:46;2.15;;;0.82;;
17141;SDS011;32805;53.556;9.944;2023-04-03T11:09:19;1.23;;;0.70;;
17141;SDS011;32805;53.556;9.944;2023-04-03T11:11:51;1.88;;;1.20;;
17141;SDS011;32805;53.556;9.944;2023-04-03T11:14:26;1.67;;;0.95;;
17141;SDS011;32805;53.556;9.944;2023-04-03T11:17:00;3.00;;;1.00;;
17141;SDS011;32805;53.556;9.944;2023-04-03T11:19:34;2.83;;;0.95;;
17141;SDS011;32805;53.556;9.944;2023-04-03T11:22:08;2.88;;;0.90;;
17141;SDS011;32805;53.556;9.944;2023-04-03T11:24:41;1.27;;;0.88;;
17141;SDS011;32805;53.556;9.944;2023-04-03T11:27:11;3.42;;;0.85;;
17141;SDS011;32805;53.556;9.944;2023-04-03T11:29:46;2.63;;;0.95;;
17141;SDS011;32805;53.556;9.944;2023-04-03T11:32:20;1.15;;;0.75;;
17141;SDS011;32805;53.556;9.944;2023-04-03T11:35:01;1.90;;;1.00;;
17141;SDS011;32805;53.556;9.944;2023-04-03T11:37:34;1.98;;;1.08;;
17141;SDS011;32805;53.556;9.944;2023-04-03T11:40:06;2.33;;;1.00;;
17141;SDS011;32805;53.556;9.944;2023-04-03T11:42:46;1.95;;;1.10;;
17141;SDS011;32805;53.556;9.944;2023-04-03T11:45:22;2.03;;;0.93;;
17141;SDS011;32805;53.556;9.944;2023-04-03T11:48:04;2.58;;;0.88;;
17141;SDS011;32805;53.556;9.944;2023-04-03T11:50:49;3.95;;;1.10;;
17141;SDS011;32805;53.556;9.944;2023-04-03T11:53:25;3.33;;;0.90;;
17141;SDS011;32805;53.556;9.944;2023-04-03T11:56:02;2.42;;;0.60;;
17141;SDS011;32805;53.556;9.944;2023-04-03T11:58:32;2.67;;;0.80;;
17141;SDS011;32805;53.556;9.944;2023-04-03T12:01:03;2.63;;;1.13;;
17141;SDS011;32805;53.556;9.944;2023-04-03T12:12:29;0.95;;;0.68;;
17141;SDS011;32805;53.556;9.944;2023-04-03T12:15:18;2.38;;;0.70;;
17141;SDS011;32805;53.556;9.944;2023-04-03T12:17:50;2.25;;;1.00;;
17141;SDS011;32805;53.556;9.944;2023-04-03T12:23:26;2.40;;;0.73;;
17141;SDS011;32805;53.556;9.944;2023-04-03T12:25:59;2.47;;;1.00;;
17141;SDS011;32805;53.556;9.944;2023-04-03T12:28:42;2.67;;;0.93;;
17141;SDS011;32805;53.556;9.944;2023-04-03T12:31:12;2.72;;;1.02;;
17141;SDS011;32805;53.556;9.944;2023-04-03T12:36:39;2.25;;;1.00;;
17141;SDS011;32805;53.556;9.944;2023-04-03T12:42:12;4.30;;;1.13;;
17141;SDS011;32805;53.556;9.944;2023-04-03T12:44:53;1.85;;;0.90;;
17141;SDS011;32805;53.556;9.944;2023-04-03T12:47:29;2.47;;;0.75;;
17141;SDS011;32805;53.556;9.944;2023-04-03T12:50:04;2.78;;;1.20;;
17141;SDS011;32805;53.556;9.944;2023-04-03T12:52:44;1.70;;;0.90;;
17141;SDS011;32805;53.556;9.944;2023-04-03T12:55:15;1.02;;;0.90;;
17141;SDS011;32805;53.556;9.944;2023-04-03T12:57:43;2.03;;;1.00;;
17141;SDS011;32805;53.556;9.944;2023-04-03T13:00:19;3.35;;;1.25;;
17141;SDS011;32805;53.556;9.944;2023-04-03T13:02:48;0.90;;;0.70;;
17141;SDS011;32805;53.556;9.944;2023-04-03T13:05:18;1.05;;;0.70;;
17141;SDS011;32805;53.556;9.944;2023-04-03T13:07:48;2.75;;;1.00;;
17141;SDS011;32805;53.556;9.944;2023-04-03T13:10:17;1.23;;;0.70;;
17141;SDS011;32805;53.556;9.944;2023-04-03T13:12:47;1.83;;;0.90;;
17141;SDS011;32805;53.556;9.944;2023-04-03T13:15:18;2.50;;;1.05;;
17141;SDS011;32805;53.556;9.944;2023-04-03T13:17:49;5.65;;;1.08;;
17141;SDS011;32805;53.556;9.944;2023-04-03T13:20:21;3.00;;;0.80;;
17141;SDS011;32805;53.556;9.944;2023-04-03T13:22:53;1.60;;;1.10;;
17141;SDS011;32805;53.556;9.944;2023-04-03T13:25:24;1.80;;;0.68;;
17141;SDS011;32805;53.556;9.944;2023-04-03T13:27:54;1.75;;;0.90;;
17141;SDS011;32805;53.556;9.944;2023-04-03T13:30:29;3.03;;;0.90;;
17141;SDS011;32805;53.556;9.944;2023-04-03T13:32:59;3.42;;;0.90;;
17141;SDS011;32805;53.556;9.944;2023-04-03T13:35:32;2.60;;;0.95;;
17141;SDS011;32805;53.556;9.944;2023-04-03T13:38:05;1.40;;;0.90;;
17141;SDS011;32805;53.556;9.944;2023-04-03T13:40:48;2.90;;;0.88;;
17141;SDS011;32805;53.556;9.944;2023-04-03T13:43:18;3.08;;;0.90;;
17141;SDS011;32805;53.556;9.944;2023-04-03T13:45:54;1.67;;;0.80;;
17141;SDS011;32805;53.556;9.944;2023-04-03T13:48:35;3.10;;;1.15;;
17141;SDS011;32805;53.556;9.944;2023-04-03T13:51:07;2.00;;;0.60;;
17141;SDS011;32805;53.556;9.944;2023-04-03T13:53:46;4.32;;;0.80;;
17141;SDS011;32805;53.556;9.944;2023-04-03T13:56:18;5.05;;;0.95;;
17141;SDS011;32805;53.556;9.944;2023-04-03T14:01:50;2.03;;;0.65;;
17141;SDS011;32805;53.556;9.944;2023-04-03T14:04:21;4.18;;;1.08;;
17141;SDS011;32805;53.556;9.944;2023-04-03T14:06:53;2.78;;;0.90;;
17141;SDS011;32805;53.556;9.944;2023-04-03T14:09:21;2.30;;;1.35;;
17141;SDS011;32805;53.556;9.944;2023-04-03T14:11:52;1.45;;;0.73;;
17141;SDS011;32805;53.556;9.944;2023-04-03T14:14:22;1.90;;;0.90;;
17141;SDS011;32805;53.556;9.944;2023-04-03T14:16:56;2.03;;;1.00;;
17141;SDS011;32805;53.556;9.944;2023-04-03T14:19:27;2.72;;;1.13;;
17141;SDS011;32805;53.556;9.944;2023-04-03T14:21:58;1.15;;;0.90;;
17141;SDS011;32805;53.556;9.944;2023-04-03T14:24:28;3.30;;;1.08;;
17141;SDS011;32805;53.556;9.944;2023-04-03T14:26:55;1.88;;;0.90;;
17141;SDS011;32805;53.556;9.944;2023-04-03T14:29:24;2.78;;;1.00;;
17141;SDS011;32805;53.556;9.944;2023-04-03T14:31:52;1.58;;;0.80;;
17141;SDS011;32805;53.556;9.944;2023-04-03T14:34:33;2.60;;;0.98;;
17141;SDS011;32805;53.556;9.944;2023-04-03T14:37:02;2.25;;;0.80;;
17141;SDS011;32805;53.556;9.944;2023-04-03T14:39:31;3.90;;;0.80;;
17141;SDS011;32805;53.556;9.944;2023-04-03T14:41:59;1.73;;;0.75;;
17141;SDS011;32805;53.556;9.944;2023-04-03T14:44:27;4.85;;;1.25;;
17141;SDS011;32805;53.556;9.944;2023-04-03T14:46:54;1.35;;;0.93;;
17141;SDS011;32805;53.556;9.944;2023-04-03T14:49:24;2.20;;;1.02;;
17141;SDS011;32805;53.556;9.944;2023-04-03T14:51:54;1.80;;;1.10;;
17141;SDS011;32805;53.556;9.944;2023-04-03T14:54:24;1.88;;;1.00;;
17141;SDS011;32805;53.556;9.944;2023-04-03T14:56:54;1.33;;;0.75;;
17141;SDS011;32805;53.556;9.944;2023-04-03T14:59:40;2.35;;;1.10;;
17141;SDS011;32805;53.556;9.944;2023-04-03T15:02:11;1.10;;;1.00;;
17141;SDS011;32805;53.556;9.944;2023-04-03T15:04:56;2.97;;;1.23;;
17141;SDS011;32805;53.556;9.944;2023-04-03T15:07:25;1.58;;;0.95;;
17141;SDS011;32805;53.556;9.944;2023-04-03T15:09:56;1.15;;;1.10;;
17141;SDS011;32805;53.556;9.944;2023-04-03T15:12:23;2.53;;;1.10;;
17141;SDS011;32805;53.556;9.944;2023-04-03T15:14:51;2.35;;;1.10;;
17141;SDS011;32805;53.556;9.944;2023-04-03T15:17:28;1.30;;;1.15;;
17141;SDS011;32805;53.556;9.944;2023-04-03T15:19:58;2.67;;;1.00;;
17141;SDS011;32805;53.556;9.944;2023-04-03T15:22:27;2.55;;;0.90;;
17141;SDS011;32805;53.556;9.944;2023-04-03T15:24:56;2.08;;;0.95;;
17141;SDS011;32805;53.556;9.944;2023-04-03T15:27:24;3.50;;;1.42;;
17141;SDS011;32805;53.556;9.944;2023-04-03T15:29:51;2.63;;;1.17;;
17141;SDS011;32805;53.556;9.944;2023-04-03T15:32:19;2.78;;;1.33;;
17141;SDS011;32805;53.556;9.944;2023-04-03T15:34:47;3.22;;;0.90;;